Ana Sayfa
METAR-TAF:

METAR-TAF

Havaalanları :

Cleburne Municipal Airport

Cleburne, Teksas, Amerika Birleşik Devletleri

Enlem: 32-21-13N, Boylam: 097-26-01W, yükseklik: 260 m

Güncel hava durumu gözlemi

Rapor saat 13:35 UTC de 26 dakika önce yapıldı.
Rüzgar güneydan 9 kt
Sıcaklık 28°C
Nem 89%
Basınç 1015 hPa
Görüş mesafesi: 16.1 km
1200 ft yükseklikte parçalı çok bulutlu

METAR: KCPT 251335Z AUTO 18009KT 10SM BKN012 28/26 A2997 RMK A01

Saat: 09:01 (14:01 UTC)


TAF: eksik

4.000'den fazla havaalanı için hava durumu gözlemleri ve tahminleri (METAR ve TAF raporları).

Kullanılabilir istasyonlar harita üzerinde sarı ve kırmızı noktalarla gösterilir.

İstasyonun adını görmek için fareyi noktanın üzerinde gezdirin.

Sonrasında hava gözlem ve tahminlerini görmek için tıklayın.

Haritayı değiştirmek için: yaklaştırmak için siyah artı işaretli yeşil düğmeye ve uzaklaştırmak için de eksi işaretli düğmeye hızla tıklayın; bitişik haritalar için yeşil okları kullanın.


METAR-TAF: